x

Frying Pan Shoals, Nc Buoy (41013) Wave Buoy

12:50pm - Sun 25th Jan 2015 All times are EST. -5 hours from GMT.

  • Sig Wave height 4.3ft
  • Swell Direction
  • Peak Period 8s
  • Average Period 6s
  • Wind
    4mph, 9mph gusts
  • Sea Temp 66°f
  • Air Temp 51°f
  • Sea Pressure 1015.3mb
  • Frying Pan Shoals, Nc Buoy
  • Frying Pan Shoals, Nc Buoy

More Historic Weather Station data

Upgrade to MSW Pro to gain access to the past 30 days of data for over 8000 Wavebouys and Weather Stations around the globe.

Join Pro

Comparision Forecast

View Surf forecast
   
Sun 01/25 12:50pm 4.5ft 8s 6s 4 9 mph 1015.3mb 66f 51f
11:50am 4.5ft 8s 6s 4 7 mph 1015.8mb 66f 51f
10:50am 4.5ft 8s 6s 7 11 mph 1016.1mb 66f 50f
9:50am 5ft 7s 6s 7 9 mph 1016.6mb 66f 51f
8:50am 5ft 8s 6s 9 11 mph 1015.9mb 66f 50f
7:50am 5ft 8s 6s 11 13 mph 1015.3mb 66f 50f
6:50am 5.5ft 8s 6s 16 20 mph 1014.4mb 66f 50f
5:50am 6ft 9s 6s 16 20 mph 1014mb 66f 50f
4:50am 7ft 10s 6s 18 22 mph 1013mb 66f 51f
3:50am 7ft 9s 6s 20 25 mph 1012.4mb 66f 52f
2:50am 7ft 10s 6s 20 25 mph 1012.1mb 66f 53f
1:50am 7ft 10s 6s 25 29 mph 1011.7mb 66f 54f
12:50am 7.5ft 8s 6s 27 34 mph 1011.2mb 66f 55f
Sat 01/24 11:50pm 8ft 10s 6s 25 29 mph 1010.8mb 66f 56f
10:50pm 8ft 9s 6s 25 31 mph 1010.3mb 66f 56f
9:50pm 8ft 10s 6s 25 31 mph 1010.5mb 66f 55f
8:50pm 8.5ft 9s 6s 25 31 mph 1010mb 66f 55f
7:50pm 9ft 10s 6s 22 25 mph 1009.6mb 66f 53f
6:50pm 10.5ft 10s 7s 27 31 mph 1008.8mb 65f 52f
5:50pm 9.5ft 10s 6s 27 31 mph 1007.7mb 65f 52f
4:50pm 10ft 11s 6s 27 34 mph 1006.1mb 65f 51f
3:50pm 12.5ft 10s 7s 25 29 mph 1005.2mb 65f 51f
2:50pm 13ft 11s 6s 31 38 mph 1004mb 66f 51f
1:50pm 13.5ft 11s 7s 36 45 mph 1002.8mb 66f 52f
12:50pm 12ft 11s 7s 34 43 mph 1002mb 67f 53f
11:50am 14ft 11s 7s 31 40 mph 1001.5mb 67f 54f
10:50am 13ft 11s 7s 31 36 mph 1001.3mb 67f 56f
9:50am 14ft 10s 7s 34 38 mph 1000.5mb 67f 59f
8:50am 15ft 10s 7s 29 36 mph 999.1mb 67f 62f
7:50am 15.5ft 11s 7s 31 43 mph 998.2mb 68f 71f
6:50am 15ft 10s 7s 36 47 mph 999.3mb 68f 70f
5:50am 15.5ft 10s 7s 31 38 mph 1000.4mb 68f 71f
4:50am 15ft 9s 7s 31 38 mph 1001.2mb 68f 69f
3:50am 15.5ft 9s 7s 29 36 mph 1002.4mb 68f 69f
2:50am 15ft 9s 7s 34 43 mph 1002.8mb 68f 72f
1:50am 15.5ft 9s 7s 36 45 mph 1003.9mb 68f 71f
12:50am 15.5ft 9s 7s 31 40 mph 1005.6mb 69f 70f
Fri 01/23 11:50pm 15.5ft 9s 7s 36 47 mph 1006.8mb 69f 72f
10:50pm 12ft 8s 6s 34 43 mph 1008.4mb 69f 71f
9:50pm 9.5ft 7s 6s 36 43 mph 1009.8mb 69f 71f
8:50pm 8ft 7s 5s 29 36 mph 1011.2mb 69f 70f
7:50pm 7.5ft 8s 5s 29 36 mph 1012.4mb 69f 72f
6:50pm 8ft 7s 5s 25 31 mph 1013.5mb 69f 70f
5:50pm 9.5ft 7s 6s 27 31 mph 1014.4mb 69f 67f
4:50pm 9.5ft 7s 6s 29 34 mph 1015.4mb 68f 67f
3:50pm 9.5ft 7s 5s 34 40 mph 1015.5mb 68f 66f
2:50pm 8.5ft 7s 5s 29 34 mph 1016.4mb 68f 65f
1:50pm 8ft 7s 5s 27 31 mph 1017.8mb 68f 66f
12:50pm 7ft 6s 5s 27 34 mph 1019.2mb 69f 66f
11:50am 7ft 6s 5s 27 31 mph 1020.6mb 69f 65f
10:50am 6.5ft 6s 5s 25 29 mph 1022mb 69f 65f
9:50am 6ft 6s 5s 22 27 mph 1022.5mb 69f 64f
8:50am 6ft 6s 5s 25 29 mph 1023.1mb 68f 62f
7:50am 5.5ft 6s 5s 25 31 mph 1023.3mb 67f 62f
6:50am 5ft 5s 4s 27 34 mph 1022.8mb 67f 62f
5:50am 4.5ft 4s 4s 22 29 mph 1023.7mb 65f 61f
4:50am 4.5ft 5s 4s 22 27 mph 1024.3mb 65f 62f
3:50am 4.5ft 5s 4s 22 27 mph 1023.8mb 64f 61f
2:50am 4.5ft 4s 4s 22 27 mph 1024mb 64f 61f
1:50am 4ft 5s 4s 22 27 mph 1024.5mb 65f 61f
12:50am 4ft 5s 4s 20 22 mph 1024.6mb 65f 61f
Thu 01/22 11:50pm 4ft 5s 5s 18 22 mph 1025.2mb 65f 61f
10:50pm 4ft 5s 4s 20 25 mph 1025mb 66f 61f
9:50pm 3.5ft 4s 5s 18 22 mph 1025.6mb 66f 60f
8:50pm 4ft 5s 5s 20 22 mph 1025.3mb 66f 60f
7:50pm 3.5ft 5s 4s 18 22 mph 1025.6mb 66f 60f
6:50pm 3.5ft 10s 4s 20 22 mph 1025.4mb 66f 60f
5:50pm 3.5ft 5s 4s 20 25 mph 1024.9mb 66f 60f
4:50pm 4ft 10s 4s 20 22 mph 1024.8mb 66f 59f
3:50pm 4ft 5s 4s 20 25 mph 1024.9mb 66f 59f
2:50pm 4.5ft 5s 4s 20 25 mph 1024.7mb 66f 59f
1:50pm 4ft 5s 4s 20 25 mph 1024.5mb 67f 59f
12:50pm 3.5ft 6s 5s 18 22 mph 1024.9mb 67f 60f
11:50am 3.5ft 6s 5s 16 18 mph 1025.6mb 68f 61f
10:50am 4.5ft 6s 5s 16 18 mph 1025.8mb 68f 60f
9:50am 4.5ft 6s 5s 18 20 mph 1025.5mb 68f 60f
8:50am 4.5ft 6s 5s 16 18 mph 1025.3mb 68f 60f
7:50am 4.5ft 5s 5s 18 20 mph 1024.1mb 68f 59f
6:50am 4ft 5s 4s 18 22 mph 1023.2mb 68f 59f
5:50am 3.5ft 5s 4s 18 22 mph 1022.4mb 67f 58f
4:50am 3.5ft 11s 4s 20 22 mph 1021.7mb 66f 58f
3:50am 3ft 10s 4s 18 22 mph 1021.4mb 66f 58f
2:50am 3.5ft 11s 4s 18 20 mph 1021.3mb 66f 58f
1:50am 3ft 4s 4s 18 20 mph 1021.1mb 67f 58f
12:50am 3ft 4s 4s 18 20 mph 1020.8mb 67f 57f
Wed 01/21 11:50pm 2.5ft 3s 4s 18 20 mph 1021mb 68f 58f
10:50pm 2.5ft 10s 4s 20 22 mph 1020.5mb 69f 58f
9:50pm 2.5ft 6s 4s 18 20 mph 1019.8mb 68f 58f
8:50pm 3ft 5s 5s 11 16 mph 1019.3mb 68f 63f
7:50pm 3.5ft 6s 5s 13 16 mph 1018.8mb 67f 64f
6:50pm 3.5ft 6s 5s 11 16 mph 1018mb 66f 64f